createdAt,value
2023-11-11T00:01:26.731Z,3.67
2023-11-11T00:03:54.005Z,3.68
2023-11-11T00:06:21.573Z,3.70
2023-11-11T00:08:49.580Z,3.68
2023-11-11T00:11:16.935Z,3.58
2023-11-11T00:13:45.558Z,3.54
2023-11-11T00:16:13.058Z,3.54
2023-11-11T00:18:40.396Z,3.55
2023-11-11T00:21:07.430Z,3.54
2023-11-11T00:23:36.566Z,3.58
2023-11-11T00:26:04.077Z,3.57
2023-11-11T00:28:31.635Z,3.56
2023-11-11T00:30:59.009Z,3.56
2023-11-11T00:33:26.821Z,3.58
2023-11-11T00:35:54.021Z,3.54
2023-11-11T00:38:21.185Z,3.56
2023-11-11T00:40:48.466Z,3.59
2023-11-11T00:43:15.616Z,3.57
2023-11-11T00:45:42.830Z,3.53
2023-11-11T00:48:10.277Z,3.50
2023-11-11T00:50:37.443Z,3.46
2023-11-11T00:53:04.969Z,3.45
2023-11-11T00:55:32.353Z,3.41
2023-11-11T00:57:59.826Z,3.43
2023-11-11T01:00:27.348Z,3.39
2023-11-11T01:02:55.925Z,3.36
2023-11-11T01:05:25.004Z,3.38
2023-11-11T01:07:52.549Z,3.36
2023-11-11T01:10:22.847Z,3.37
2023-11-11T01:12:50.696Z,3.39
2023-11-11T01:15:18.560Z,3.36
2023-11-11T01:17:45.851Z,3.28
2023-11-11T01:20:13.856Z,3.23
2023-11-11T01:22:41.404Z,3.23
2023-11-11T01:25:09.200Z,3.22
2023-11-11T01:27:37.668Z,3.21
2023-11-11T01:30:06.750Z,3.21
2023-11-11T01:32:34.902Z,3.16
2023-11-11T01:35:02.118Z,3.17
2023-11-11T01:37:30.909Z,3.15
2023-11-11T01:39:58.922Z,3.15
2023-11-11T01:42:26.089Z,3.18
2023-11-11T01:44:53.349Z,3.16
2023-11-11T01:47:20.737Z,3.10
2023-11-11T01:49:48.097Z,3.06
2023-11-11T01:52:15.420Z,3.05
2023-11-11T01:54:43.494Z,3.07
2023-11-11T01:57:11.113Z,3.08
2023-11-11T01:59:39.453Z,3.13
2023-11-11T02:02:07.344Z,3.13
2023-11-11T02:04:35.044Z,3.16
2023-11-11T02:07:02.960Z,3.14
2023-11-11T02:09:30.310Z,3.10
2023-11-11T02:11:58.144Z,3.04
2023-11-11T02:14:26.009Z,3.01
2023-11-11T02:16:53.367Z,2.97
2023-11-11T02:19:20.822Z,2.97
2023-11-11T02:21:49.874Z,2.92
2023-11-11T02:24:18.507Z,2.88
2023-11-11T02:26:46.340Z,2.88
2023-11-11T02:29:14.206Z,2.88
2023-11-11T02:31:41.839Z,2.95
2023-11-11T02:34:09.002Z,3.01
2023-11-11T02:36:37.784Z,3.03
2023-11-11T02:39:05.885Z,3.03
2023-11-11T02:41:33.219Z,3.05
2023-11-11T02:44:00.455Z,3.04
2023-11-11T02:46:27.641Z,2.98
2023-11-11T02:48:54.738Z,2.96
2023-11-11T02:51:21.845Z,2.98
2023-11-11T02:53:49.176Z,2.98
2023-11-11T02:56:16.213Z,2.95
2023-11-11T02:58:43.348Z,2.90
2023-11-11T03:01:10.782Z,2.90
2023-11-11T03:03:38.166Z,2.90
2023-11-11T03:06:06.819Z,2.91
2023-11-11T03:08:38.171Z,2.90
2023-11-11T03:11:06.259Z,2.87
2023-11-11T03:13:33.532Z,2.84
2023-11-11T03:16:04.816Z,2.84
2023-11-11T03:18:32.007Z,2.86
2023-11-11T03:20:59.402Z,2.91
2023-11-11T03:23:26.451Z,2.90
2023-11-11T03:25:54.036Z,2.93
2023-11-11T03:28:21.602Z,3.05
2023-11-11T03:30:49.510Z,3.10
2023-11-11T03:33:16.912Z,3.10
2023-11-11T03:35:44.168Z,3.14
2023-11-11T03:38:11.301Z,3.16
2023-11-11T03:40:38.532Z,3.07
2023-11-11T03:43:05.563Z,3.08
2023-11-11T03:45:32.603Z,3.09
2023-11-11T03:47:59.818Z,3.18
2023-11-11T03:50:27.024Z,3.23
2023-11-11T03:52:54.065Z,3.26
2023-11-11T03:55:22.193Z,3.25
2023-11-11T03:57:49.335Z,3.31
2023-11-11T04:00:21.145Z,3.29
2023-11-11T04:02:48.964Z,3.36
2023-11-11T04:05:16.924Z,3.37
2023-11-11T04:07:44.197Z,3.34
2023-11-11T04:10:11.342Z,3.28
2023-11-11T04:12:40.622Z,3.24
2023-11-11T04:15:08.371Z,3.26
2023-11-11T04:17:36.942Z,3.25
2023-11-11T04:20:11.136Z,3.23
2023-11-11T04:22:42.704Z,3.29
2023-11-11T04:25:10.516Z,3.32
2023-11-11T04:27:38.713Z,3.31
2023-11-11T04:30:08.340Z,3.35
2023-11-11T04:32:36.402Z,3.32
2023-11-11T04:35:05.146Z,3.29
2023-11-11T04:37:33.460Z,3.28
2023-11-11T04:40:00.704Z,3.30
2023-11-11T04:42:28.520Z,3.30
2023-11-11T04:44:55.773Z,3.27
2023-11-11T04:47:22.987Z,3.27
2023-11-11T04:49:50.585Z,3.30
2023-11-11T04:52:18.148Z,3.30
2023-11-11T04:54:45.214Z,3.28
2023-11-11T04:57:12.593Z,3.27
2023-11-11T04:59:40.152Z,3.31
2023-11-11T05:02:07.915Z,3.28
2023-11-11T05:04:35.251Z,3.26
2023-11-11T05:07:02.258Z,3.24
2023-11-11T05:09:31.046Z,3.19
2023-11-11T05:11:58.271Z,3.20
2023-11-11T05:14:26.401Z,3.20
2023-11-11T05:16:56.011Z,3.18
2023-11-11T05:19:23.202Z,3.19
2023-11-11T05:21:50.505Z,3.27
2023-11-11T05:24:17.622Z,3.38
2023-11-11T05:26:44.749Z,3.39
2023-11-11T05:29:11.993Z,3.36
2023-11-11T05:31:39.197Z,3.31
2023-11-11T05:34:06.505Z,3.27
2023-11-11T05:36:34.624Z,3.22
2023-11-11T05:39:02.436Z,3.15
2023-11-11T05:41:31.440Z,3.21
2023-11-11T05:43:59.352Z,3.23
2023-11-11T05:46:26.983Z,3.23
2023-11-11T05:48:54.378Z,3.26
2023-11-11T05:51:22.477Z,3.31
2023-11-11T05:53:49.728Z,3.34
2023-11-11T05:56:18.336Z,3.39
2023-11-11T05:58:45.684Z,3.36
2023-11-11T06:01:12.747Z,3.34
2023-11-11T06:03:40.030Z,3.39
2023-11-11T06:06:07.227Z,3.46
2023-11-11T06:08:34.483Z,3.53
2023-11-11T06:11:02.134Z,3.52
2023-11-11T06:13:29.741Z,3.49
2023-11-11T06:15:56.852Z,3.54
2023-11-11T06:18:25.167Z,3.57
2023-11-11T06:20:52.498Z,3.57
2023-11-11T06:25:49.858Z,3.56
2023-11-11T06:28:17.775Z,3.61
2023-11-11T06:30:44.999Z,3.61
2023-11-11T06:33:12.796Z,3.63
2023-11-11T06:35:39.967Z,3.60
2023-11-11T06:38:07.886Z,3.63
2023-11-11T06:40:35.053Z,3.58
2023-11-11T06:43:04.458Z,3.60
2023-11-11T06:45:33.215Z,3.65
2023-11-11T06:48:01.327Z,3.75
2023-11-11T06:50:28.864Z,3.84
2023-11-11T06:52:56.160Z,3.84
2023-11-11T06:55:23.478Z,3.86
2023-11-11T06:57:51.001Z,3.84
2023-11-11T07:00:20.084Z,3.87
2023-11-11T07:02:48.894Z,3.91
2023-11-11T07:05:16.253Z,3.93
2023-11-11T07:07:43.880Z,4.01
2023-11-11T07:10:13.266Z,4.09
2023-11-11T07:12:40.826Z,4.13
2023-11-11T07:15:11.812Z,4.10
2023-11-11T07:17:43.435Z,4.16
2023-11-11T07:20:14.088Z,4.16
2023-11-11T07:22:41.344Z,4.16
2023-11-11T07:25:10.449Z,4.21
2023-11-11T07:27:37.643Z,4.25
2023-11-11T07:30:07.433Z,4.31
2023-11-11T07:32:35.802Z,4.35
2023-11-11T07:35:04.387Z,4.38
2023-11-11T07:37:32.373Z,4.41
2023-11-11T07:40:00.505Z,4.42
2023-11-11T07:42:27.992Z,4.46
2023-11-11T07:44:55.592Z,4.46
2023-11-11T07:47:23.247Z,4.52
2023-11-11T07:49:50.263Z,4.55
2023-11-11T07:52:17.505Z,4.60
2023-11-11T07:54:44.692Z,4.64
2023-11-11T07:57:12.158Z,4.72
2023-11-11T07:59:45.312Z,4.76
2023-11-11T08:02:14.150Z,4.83
2023-11-11T08:04:42.103Z,4.91
2023-11-11T08:07:11.930Z,5.02
2023-11-11T08:09:39.385Z,5.14
2023-11-11T08:12:07.161Z,5.21
2023-11-11T08:14:34.389Z,5.25
2023-11-11T08:17:01.632Z,5.36
2023-11-11T08:19:29.061Z,5.53
2023-11-11T08:21:56.177Z,5.65
2023-11-11T08:24:23.643Z,5.73
2023-11-11T08:26:50.842Z,5.82
2023-11-11T08:29:18.251Z,5.88
2023-11-11T08:31:45.378Z,6.08
2023-11-11T08:34:13.537Z,6.26
2023-11-11T08:36:48.196Z,6.28
2023-11-11T08:39:19.007Z,6.13
2023-11-11T08:41:46.491Z,6.09
2023-11-11T08:44:13.653Z,6.09
2023-11-11T08:46:41.181Z,6.01
2023-11-11T08:49:08.654Z,6.01
2023-11-11T08:51:36.199Z,6.07
2023-11-11T08:54:03.454Z,6.05
2023-11-11T08:56:30.673Z,6.07
2023-11-11T08:58:57.996Z,6.03
2023-11-11T09:01:25.281Z,5.99
2023-11-11T09:03:54.179Z,5.95
2023-11-11T09:06:21.607Z,5.88
2023-11-11T09:08:48.956Z,5.90
2023-11-11T09:11:17.362Z,5.94
2023-11-11T09:16:12.315Z,6.00
2023-11-11T09:18:39.446Z,6.10
2023-11-11T09:21:08.686Z,6.22
2023-11-11T09:23:37.794Z,6.24
2023-11-11T09:26:07.836Z,6.22
2023-11-11T09:28:35.812Z,6.25
2023-11-11T09:31:03.787Z,6.25
2023-11-11T09:33:31.757Z,6.18
2023-11-11T09:35:58.824Z,6.13
2023-11-11T09:38:25.862Z,6.13
2023-11-11T09:40:53.390Z,6.12
2023-11-11T09:43:20.967Z,6.11
2023-11-11T09:45:52.111Z,6.15
2023-11-11T09:48:19.576Z,6.19
2023-11-11T09:50:46.946Z,6.21
2023-11-11T09:53:14.951Z,6.18
2023-11-11T09:55:44.561Z,6.16
2023-11-11T09:58:11.982Z,6.16
2023-11-11T10:00:39.695Z,6.13
2023-11-11T10:03:06.936Z,6.09
2023-11-11T10:05:35.232Z,6.09
2023-11-11T10:08:02.995Z,6.04
2023-11-11T10:10:31.314Z,6.03
2023-11-11T10:12:58.956Z,6.00
2023-11-11T10:15:26.087Z,6.00
2023-11-11T10:17:53.283Z,5.97
2023-11-11T10:20:20.587Z,5.99
2023-11-11T10:22:49.784Z,6.04
2023-11-11T10:25:20.142Z,6.07
2023-11-11T10:27:52.665Z,6.13
2023-11-11T10:30:22.380Z,6.15
2023-11-11T10:32:52.483Z,6.15
2023-11-11T10:35:21.026Z,6.12
2023-11-11T10:37:50.667Z,6.15
2023-11-11T10:40:19.412Z,6.16
2023-11-11T10:42:48.525Z,6.24
2023-11-11T10:45:19.291Z,6.25
2023-11-11T10:47:47.709Z,6.28
2023-11-11T10:50:15.898Z,6.33
2023-11-11T10:52:44.568Z,6.44
2023-11-11T10:55:12.976Z,6.52
2023-11-11T10:57:42.894Z,6.64
2023-11-11T11:00:31.870Z,6.71
2023-11-11T11:02:59.318Z,6.75
2023-11-11T11:05:43.918Z,6.71
2023-11-11T11:08:43.236Z,6.66
2023-11-11T11:11:43.493Z,6.64
2023-11-11T11:14:19.803Z,6.65
2023-11-11T11:16:47.155Z,6.62
2023-11-11T11:19:16.413Z,6.60
2023-11-11T11:21:43.716Z,6.58
2023-11-11T11:24:12.066Z,6.56
2023-11-11T11:26:39.286Z,6.54
2023-11-11T11:29:21.404Z,6.51
2023-11-11T11:32:08.124Z,6.46
2023-11-11T11:34:39.481Z,6.43
2023-11-11T11:37:11.471Z,6.47
2023-11-11T11:39:56.091Z,6.46
2023-11-11T11:42:26.582Z,6.43
2023-11-11T11:44:58.195Z,6.41
2023-11-11T11:47:36.592Z,6.36
2023-11-11T11:50:05.294Z,6.32
2023-11-11T11:52:35.519Z,6.29
2023-11-11T11:55:03.148Z,6.28
2023-11-11T11:57:31.963Z,6.27
2023-11-11T12:00:15.543Z,6.23
2023-11-11T12:02:43.794Z,6.18
2023-11-11T12:05:12.211Z,6.14
2023-11-11T12:07:41.354Z,6.07
2023-11-11T12:10:15.189Z,6.02
2023-11-11T12:12:44.851Z,5.97
2023-11-11T12:15:13.153Z,5.92
2023-11-11T12:17:48.808Z,5.87
2023-11-11T12:20:16.740Z,5.81
2023-11-11T12:22:50.602Z,5.75
2023-11-11T12:25:18.020Z,5.68
2023-11-11T12:27:52.432Z,5.63
2023-11-11T12:30:20.917Z,5.56
2023-11-11T12:33:08.155Z,5.53
2023-11-11T12:35:46.929Z,5.45
2023-11-11T12:38:32.351Z,5.37
2023-11-11T12:41:02.492Z,5.30
2023-11-11T12:43:30.787Z,5.24
2023-11-11T12:46:02.072Z,5.18
2023-11-11T12:48:31.003Z,5.12
2023-11-11T12:50:58.307Z,5.06
2023-11-11T12:53:25.660Z,5.01
2023-11-11T12:56:06.310Z,4.99
2023-11-11T12:58:34.095Z,4.93
2023-11-11T13:01:06.159Z,4.90
2023-11-11T13:03:34.702Z,4.86
2023-11-11T13:06:06.326Z,4.81
2023-11-11T13:08:36.338Z,4.76
2023-11-11T13:11:04.616Z,4.73
2023-11-11T13:13:33.970Z,4.69
2023-11-11T13:16:01.707Z,4.62
2023-11-11T13:18:29.162Z,4.55
2023-11-11T13:20:59.350Z,4.51
2023-11-11T13:23:31.480Z,4.46
2023-11-11T13:26:00.003Z,4.39
2023-11-11T13:28:28.107Z,4.32
2023-11-11T13:30:56.079Z,4.25
2023-11-11T13:33:23.269Z,4.21
2023-11-11T13:35:56.635Z,4.16
2023-11-11T13:38:24.422Z,4.10
2023-11-11T13:40:52.591Z,4.03
2023-11-11T13:43:24.130Z,3.97
2023-11-11T13:45:51.848Z,3.92
2023-11-11T13:48:19.237Z,3.86
2023-11-11T13:50:46.526Z,3.81
2023-11-11T13:53:14.242Z,3.77
2023-11-11T13:55:41.594Z,3.72
2023-11-11T13:58:09.203Z,3.68
2023-11-11T14:00:39.285Z,3.63
2023-11-11T14:03:11.330Z,3.57
2023-11-11T14:05:38.580Z,3.53
2023-11-11T14:08:08.885Z,3.50
2023-11-11T14:10:37.884Z,3.47
2023-11-11T14:13:05.936Z,3.41
2023-11-11T14:15:39.933Z,3.38
2023-11-11T14:18:15.880Z,3.35
2023-11-11T14:20:46.177Z,3.31
2023-11-11T14:23:18.026Z,3.30
2023-11-11T14:25:46.979Z,3.28
2023-11-11T14:28:14.466Z,3.24
2023-11-11T14:30:41.893Z,3.23
2023-11-11T14:33:09.121Z,3.25
2023-11-11T14:35:36.543Z,3.28
2023-11-11T14:38:04.424Z,3.28
2023-11-11T14:40:31.990Z,3.24
2023-11-11T14:43:00.591Z,3.22
2023-11-11T14:45:27.819Z,3.18
2023-11-11T14:47:55.194Z,3.14
2023-11-11T14:50:22.565Z,3.13
2023-11-11T14:52:50.044Z,3.14
2023-11-11T14:55:19.122Z,3.15
2023-11-11T14:57:49.579Z,3.10
2023-11-11T15:00:24.605Z,3.08
2023-11-11T15:02:55.079Z,3.06
2023-11-11T15:05:23.360Z,3.07
2023-11-11T15:07:51.422Z,3.05
2023-11-11T15:10:19.983Z,3.05
2023-11-11T15:12:53.963Z,3.06
2023-11-11T15:15:22.650Z,3.05
2023-11-11T15:17:49.901Z,3.03
2023-11-11T15:20:19.926Z,2.99
2023-11-11T15:22:54.113Z,2.95
2023-11-11T15:25:21.910Z,2.94
2023-11-11T15:27:51.311Z,2.91
2023-11-11T15:30:21.387Z,2.91
2023-11-11T15:32:49.859Z,2.90
2023-11-11T15:35:18.354Z,2.90
2023-11-11T15:37:46.684Z,2.88
2023-11-11T15:40:14.701Z,2.88
2023-11-11T15:42:42.079Z,2.88
2023-11-11T15:45:15.168Z,2.86
2023-11-11T15:47:42.529Z,2.85
2023-11-11T15:50:15.497Z,2.84
2023-11-11T15:52:42.702Z,2.85
2023-11-11T15:55:10.042Z,2.86
2023-11-11T15:57:37.077Z,2.86
2023-11-11T16:00:06.118Z,2.89
2023-11-11T16:02:42.703Z,2.92
2023-11-11T16:05:10.643Z,2.95
2023-11-11T16:07:38.671Z,3.00
2023-11-11T16:10:06.448Z,3.01
2023-11-11T16:12:33.861Z,3.04
2023-11-11T16:15:01.661Z,3.01
2023-11-11T16:17:33.146Z,3.00
2023-11-11T16:20:00.665Z,3.06
2023-11-11T16:22:28.619Z,3.07
2023-11-11T16:24:56.393Z,3.05
2023-11-11T16:27:23.740Z,3.03
2023-11-11T16:29:53.535Z,3.00
2023-11-11T16:32:24.119Z,2.99
2023-11-11T16:34:51.646Z,2.97
2023-11-11T16:37:18.729Z,2.94
2023-11-11T16:39:46.418Z,2.92
2023-11-11T16:42:16.240Z,2.91
2023-11-11T16:44:44.337Z,2.89
2023-11-11T16:47:12.064Z,2.88
2023-11-11T16:49:39.443Z,2.87
2023-11-11T16:52:07.090Z,2.84
2023-11-11T16:54:38.191Z,2.82
2023-11-11T16:57:05.946Z,2.82
2023-11-11T16:59:32.947Z,2.83
2023-11-11T17:02:00.173Z,2.84
2023-11-11T17:04:27.308Z,2.82
2023-11-11T17:06:54.536Z,2.85
2023-11-11T17:09:24.648Z,2.84
2023-11-11T17:11:52.347Z,2.84
2023-11-11T17:14:19.421Z,2.83
2023-11-11T17:16:46.714Z,2.81
2023-11-11T17:19:13.805Z,2.84
2023-11-11T17:21:40.811Z,2.82
2023-11-11T17:24:11.975Z,2.83
2023-11-11T17:26:39.789Z,2.83
2023-11-11T17:29:07.004Z,2.80
2023-11-11T17:31:34.290Z,2.79
2023-11-11T17:34:01.420Z,2.77
2023-11-11T17:36:32.598Z,2.79
2023-11-11T17:39:00.234Z,2.79
2023-11-11T17:41:27.609Z,2.78
2023-11-11T17:43:54.776Z,2.77
2023-11-11T17:46:23.128Z,2.80
2023-11-11T17:48:51.534Z,2.82
2023-11-11T17:51:21.600Z,2.79
2023-11-11T17:53:50.475Z,2.77
2023-11-11T17:56:24.260Z,2.78
2023-11-11T17:58:52.049Z,2.84
2023-11-11T18:01:19.902Z,2.84
2023-11-11T18:03:47.344Z,2.85
2023-11-11T18:06:14.691Z,2.84
2023-11-11T18:08:45.116Z,2.85
2023-11-11T18:11:13.336Z,2.84
2023-11-11T18:13:40.997Z,2.85
2023-11-11T18:16:18.532Z,2.87
2023-11-11T18:18:46.163Z,2.88
2023-11-11T18:21:15.289Z,2.86
2023-11-11T18:23:42.867Z,2.85
2023-11-11T18:26:10.126Z,2.84
2023-11-11T18:28:37.894Z,2.83
2023-11-11T18:31:05.661Z,2.81
2023-11-11T18:33:33.967Z,2.80
2023-11-11T18:36:01.214Z,2.79
2023-11-11T18:38:29.924Z,2.79
2023-11-11T18:40:57.965Z,2.79
2023-11-11T18:43:25.245Z,2.77
2023-11-11T18:45:52.411Z,2.78
2023-11-11T18:48:19.593Z,2.77
2023-11-11T18:50:49.482Z,2.75
2023-11-11T18:53:17.038Z,2.75
2023-11-11T18:55:45.202Z,2.77
2023-11-11T18:58:13.009Z,2.77
2023-11-11T19:00:40.440Z,2.78
2023-11-11T19:03:08.480Z,2.80
2023-11-11T19:05:36.102Z,2.82
2023-11-11T19:08:03.890Z,2.83
2023-11-11T19:10:30.908Z,2.85
2023-11-11T19:12:59.540Z,2.86
2023-11-11T19:15:26.734Z,2.88
2023-11-11T19:17:53.984Z,2.88
2023-11-11T19:20:25.281Z,2.86
2023-11-11T19:36:21.766Z,2.89
2023-11-11T19:38:51.215Z,2.91
2023-11-11T19:41:18.906Z,2.90
2023-11-11T19:43:48.412Z,2.90
2023-11-11T19:46:16.872Z,2.91
2023-11-11T19:48:46.296Z,2.89
2023-11-11T19:51:25.049Z,2.90
2023-11-11T19:53:58.803Z,2.91
2023-11-11T19:56:25.994Z,2.94
2023-11-11T19:58:53.325Z,2.92
2023-11-11T20:01:20.473Z,2.92
2023-11-11T20:03:48.794Z,2.94
2023-11-11T20:06:16.567Z,2.93
2023-11-11T20:08:43.717Z,2.91
2023-11-11T20:11:11.338Z,2.91
2023-11-11T20:13:38.639Z,2.89
2023-11-11T20:16:06.025Z,2.89
2023-11-11T20:18:33.373Z,2.90
2023-11-11T20:21:00.487Z,2.89
2023-11-11T20:23:28.643Z,2.87
2023-11-11T20:25:57.335Z,2.88
2023-11-11T20:28:25.576Z,2.89
2023-11-11T20:30:53.248Z,2.91
2023-11-11T20:33:21.853Z,2.88
2023-11-11T20:36:17.953Z,2.83
2023-11-11T20:38:45.091Z,2.81
2023-11-11T20:41:12.252Z,2.76
2023-11-11T20:43:39.604Z,2.74
2023-11-11T20:46:06.724Z,2.72
2023-11-11T20:48:33.951Z,2.68
2023-11-11T20:51:02.191Z,2.65
2023-11-11T20:53:31.767Z,2.61
2023-11-11T20:55:58.997Z,2.56
2023-11-11T20:58:26.024Z,2.54
2023-11-11T21:00:54.242Z,2.54
2023-11-11T21:03:22.057Z,2.54
2023-11-11T21:05:49.175Z,2.52
2023-11-11T21:08:17.242Z,2.51
2023-11-11T21:10:44.685Z,2.51
2023-11-11T21:13:11.773Z,2.53
2023-11-11T21:15:39.128Z,2.52
2023-11-11T21:18:06.360Z,2.50
2023-11-11T21:20:39.835Z,2.50
2023-11-11T21:23:07.319Z,2.50
2023-11-11T21:25:34.452Z,2.49
2023-11-11T21:28:01.626Z,2.50
2023-11-11T21:30:29.002Z,2.50
2023-11-11T21:32:56.300Z,2.52
2023-11-11T21:35:23.513Z,2.53
2023-11-11T21:37:52.681Z,2.52
2023-11-11T21:40:20.172Z,2.55
2023-11-11T21:42:49.010Z,2.54
2023-11-11T21:45:16.536Z,2.54
2023-11-11T21:47:43.782Z,2.53
2023-11-11T21:50:11.376Z,2.53
2023-11-11T21:52:38.821Z,2.53
2023-11-11T21:55:06.834Z,2.50
2023-11-11T21:57:34.507Z,2.49
2023-11-11T22:00:01.705Z,2.48
2023-11-11T22:02:39.782Z,2.50
2023-11-11T22:05:08.014Z,2.51
2023-11-11T22:07:35.198Z,2.52
2023-11-11T22:10:02.286Z,2.51
2023-11-11T22:12:31.674Z,2.50
2023-11-11T22:14:58.725Z,2.49
2023-11-11T22:17:25.969Z,2.49
2023-11-11T22:19:53.738Z,2.48
2023-11-11T22:22:22.223Z,2.48
2023-11-11T22:24:51.309Z,2.47
2023-11-11T22:27:18.430Z,2.47
2023-11-11T22:29:45.411Z,2.45
2023-11-11T22:32:12.562Z,2.46
2023-11-11T22:34:39.826Z,2.48
2023-11-11T22:37:06.895Z,2.47
2023-11-11T22:39:34.017Z,2.49
2023-11-11T22:42:01.173Z,2.52
2023-11-11T22:44:28.281Z,2.52
2023-11-11T22:46:55.399Z,2.52
2023-11-11T22:49:23.869Z,2.54
2023-11-11T22:51:52.087Z,2.54
2023-11-11T22:54:19.509Z,2.54
2023-11-11T22:56:47.115Z,2.56
2023-11-11T22:59:15.376Z,2.58
2023-11-11T23:01:42.509Z,2.57
2023-11-11T23:04:10.036Z,2.60
2023-11-11T23:06:37.415Z,2.61
2023-11-11T23:09:08.455Z,2.60
2023-11-11T23:11:36.004Z,2.59
2023-11-11T23:14:03.351Z,2.59
2023-11-11T23:16:30.544Z,2.61
2023-11-11T23:18:57.776Z,2.61
2023-11-11T23:21:24.920Z,2.62
2023-11-11T23:23:52.947Z,2.62
2023-11-11T23:26:20.246Z,2.63
2023-11-11T23:28:49.600Z,2.64
2023-11-11T23:31:16.976Z,2.66
2023-11-11T23:33:44.016Z,2.68
2023-11-11T23:36:11.210Z,2.69
2023-11-11T23:38:40.120Z,2.68
2023-11-11T23:41:08.504Z,2.69
2023-11-11T23:43:35.671Z,2.69
2023-11-11T23:46:02.951Z,2.70
2023-11-11T23:48:30.213Z,2.72
2023-11-11T23:50:57.301Z,2.72
2023-11-11T23:53:24.423Z,2.74
2023-11-11T23:55:51.573Z,2.75
2023-11-11T23:58:18.775Z,2.76
